createdAt,value
2022-12-24T00:00:09.486Z,3.58
2022-12-24T00:02:36.164Z,4.22
2022-12-24T00:05:02.846Z,3.70
2022-12-24T00:07:29.881Z,4.95
2022-12-24T00:09:56.393Z,4.13
2022-12-24T00:12:23.056Z,4.03
2022-12-24T00:14:49.722Z,3.92
2022-12-24T00:17:16.352Z,3.67
2022-12-24T00:19:43.313Z,4.55
2022-12-24T00:22:09.842Z,3.42
2022-12-24T00:24:36.327Z,3.55
2022-12-24T00:27:03.571Z,3.65
2022-12-24T00:29:30.062Z,4.70
2022-12-24T00:31:56.487Z,3.60
2022-12-24T00:34:24.313Z,4.32
2022-12-24T00:36:51.245Z,3.17
2022-12-24T00:39:17.813Z,4.57
2022-12-24T00:41:44.565Z,4.10
2022-12-24T00:44:11.892Z,3.85
2022-12-24T00:46:40.468Z,5.50
2022-12-24T00:49:07.787Z,4.05
2022-12-24T00:51:35.678Z,4.47
2022-12-24T00:54:02.278Z,3.92
2022-12-24T00:56:29.030Z,4.35
2022-12-24T00:58:55.609Z,4.50
2022-12-24T01:01:22.997Z,4.13
2022-12-24T01:03:51.047Z,4.63
2022-12-24T01:06:21.304Z,7.13
2022-12-24T01:08:51.559Z,3.05
2022-12-24T01:11:18.613Z,6.88
2022-12-24T01:13:45.067Z,3.97
2022-12-24T01:16:20.975Z,8.43
2022-12-24T01:18:48.730Z,4.45
2022-12-24T01:21:15.926Z,3.25
2022-12-24T01:23:42.660Z,3.63
2022-12-24T01:26:12.281Z,3.58
2022-12-24T01:28:38.868Z,3.53
2022-12-24T01:31:17.108Z,4.03
2022-12-24T01:33:45.234Z,3.45
2022-12-24T01:36:12.708Z,5.18
2022-12-24T01:38:39.812Z,3.67
2022-12-24T01:41:25.127Z,4.47
2022-12-24T01:43:51.601Z,3.53
2022-12-24T01:46:28.024Z,4.55
2022-12-24T01:48:57.886Z,3.35
2022-12-24T01:51:29.690Z,8.70
2022-12-24T01:54:05.659Z,3.97
2022-12-24T01:56:33.144Z,5.63
2022-12-24T01:59:06.714Z,3.45
2022-12-24T02:01:33.723Z,3.22
2022-12-24T02:04:05.396Z,3.53
2022-12-24T02:06:31.887Z,4.13
2022-12-24T02:08:58.338Z,4.03
2022-12-24T02:11:24.851Z,5.70
2022-12-24T02:13:57.791Z,4.15
2022-12-24T02:16:27.105Z,3.80
2022-12-24T02:19:04.495Z,3.15
2022-12-24T02:21:52.212Z,4.40
2022-12-24T02:24:30.847Z,2.88
2022-12-24T02:27:15.679Z,3.38
2022-12-24T02:29:51.332Z,3.33
2022-12-24T02:32:33.622Z,4.38
2022-12-24T02:35:12.217Z,3.45
2022-12-24T02:37:44.878Z,3.70
2022-12-24T02:40:17.183Z,4.32
2022-12-24T02:42:49.107Z,3.50
2022-12-24T02:45:20.341Z,3.42
2022-12-24T02:47:48.659Z,3.90
2022-12-24T02:50:16.847Z,3.90
2022-12-24T02:52:45.705Z,4.85
2022-12-24T02:55:36.919Z,3.33
2022-12-24T02:58:22.371Z,4.35
2022-12-24T03:01:16.609Z,3.20
2022-12-24T03:04:01.606Z,3.70
2022-12-24T03:06:57.433Z,3.88
2022-12-24T03:09:36.727Z,3.33
2022-12-24T03:12:12.184Z,3.55
2022-12-24T03:14:41.370Z,3.25
2022-12-24T03:17:09.303Z,2.40
2022-12-24T03:19:36.356Z,3.53
2022-12-24T03:22:07.488Z,3.53
2022-12-24T03:24:33.942Z,3.13
2022-12-24T03:27:01.351Z,3.28
2022-12-24T03:29:27.943Z,3.30
2022-12-24T03:32:01.184Z,4.38
2022-12-24T03:34:27.780Z,3.78
2022-12-24T03:36:54.258Z,3.72
2022-12-24T03:39:20.776Z,2.85
2022-12-24T03:41:47.626Z,3.20
2022-12-24T03:44:14.453Z,3.40
2022-12-24T03:46:41.064Z,2.88
2022-12-24T03:49:07.795Z,2.78
2022-12-24T03:51:34.329Z,2.38
2022-12-24T03:54:00.875Z,3.35
2022-12-24T03:56:27.409Z,2.67
2022-12-24T03:58:53.905Z,2.22
2022-12-24T04:01:20.614Z,2.85
2022-12-24T04:03:47.155Z,2.30
2022-12-24T04:06:17.720Z,1.90
2022-12-24T04:08:46.599Z,2.03
2022-12-24T04:11:16.050Z,2.33
2022-12-24T04:13:42.871Z,2.15
2022-12-24T04:16:12.333Z,2.63
2022-12-24T04:18:40.253Z,2.00
2022-12-24T04:21:07.539Z,1.92
2022-12-24T04:23:35.831Z,2.17
2022-12-24T04:26:04.116Z,2.00
2022-12-24T04:28:32.419Z,1.88
2022-12-24T04:31:03.574Z,2.03
2022-12-24T04:33:30.298Z,2.08
2022-12-24T04:36:01.672Z,2.53
2022-12-24T04:38:29.141Z,2.70
2022-12-24T04:41:23.779Z,2.20
2022-12-24T04:43:53.982Z,2.50
2022-12-24T04:46:24.341Z,2.65
2022-12-24T04:48:52.503Z,2.17
2022-12-24T04:51:19.847Z,2.60
2022-12-24T04:53:47.649Z,2.33
2022-12-24T04:56:17.440Z,2.45
2022-12-24T04:58:44.499Z,2.35
2022-12-24T05:01:17.988Z,2.10
2022-12-24T05:03:45.021Z,2.53
2022-12-24T05:06:14.147Z,2.58
2022-12-24T05:08:41.044Z,2.33
2022-12-24T05:11:08.607Z,2.60
2022-12-24T05:13:44.166Z,2.95
2022-12-24T05:16:14.826Z,2.60
2022-12-24T05:18:41.536Z,3.15
2022-12-24T05:21:16.602Z,3.42
2022-12-24T05:24:02.378Z,2.92
2022-12-24T05:26:49.259Z,2.97
2022-12-24T05:29:16.009Z,2.72
2022-12-24T05:31:43.656Z,4.05
2022-12-24T05:34:10.643Z,3.35
2022-12-24T05:36:37.213Z,3.70
2022-12-24T05:39:07.217Z,3.90
2022-12-24T05:41:36.503Z,3.65
2022-12-24T05:44:02.993Z,2.97
2022-12-24T05:46:29.505Z,4.07
2022-12-24T05:48:56.020Z,3.53
2022-12-24T05:51:23.650Z,4.10
2022-12-24T05:53:52.138Z,3.90
2022-12-24T05:56:23.997Z,3.85
2022-12-24T05:58:52.079Z,3.30
2022-12-24T06:01:18.795Z,3.72
2022-12-24T06:03:45.475Z,5.25
2022-12-24T06:06:14.677Z,4.22
2022-12-24T06:08:42.433Z,4.40
2022-12-24T06:11:11.585Z,3.92
2022-12-24T06:13:39.239Z,3.70
2022-12-24T06:16:07.662Z,4.50
2022-12-24T06:18:35.862Z,4.82
2022-12-24T06:21:03.361Z,4.55
2022-12-24T06:23:31.444Z,3.67
2022-12-24T06:26:01.374Z,4.03
2022-12-24T06:28:32.541Z,4.10
2022-12-24T06:31:03.128Z,4.47
2022-12-24T06:33:32.117Z,4.15
2022-12-24T06:35:58.747Z,4.30
2022-12-24T06:38:25.552Z,4.05
2022-12-24T06:40:52.269Z,3.53
2022-12-24T06:43:18.840Z,4.03
2022-12-24T06:45:47.586Z,3.83
2022-12-24T06:48:15.305Z,4.35
2022-12-24T06:50:42.356Z,4.00
2022-12-24T06:53:09.871Z,4.13
2022-12-24T06:55:36.401Z,4.00
2022-12-24T06:58:03.543Z,3.67
2022-12-24T07:00:30.099Z,3.63
2022-12-24T07:02:56.645Z,3.90
2022-12-24T07:05:23.177Z,3.95
2022-12-24T07:07:49.671Z,4.00
2022-12-24T07:10:18.079Z,3.75
2022-12-24T07:12:45.068Z,4.50
2022-12-24T07:15:12.758Z,4.18
2022-12-24T07:17:39.283Z,4.75
2022-12-24T07:20:07.287Z,3.50
2022-12-24T07:22:33.898Z,4.13
2022-12-24T07:25:00.345Z,4.35
2022-12-24T07:27:28.077Z,3.42
2022-12-24T07:29:54.536Z,4.15
2022-12-24T07:32:21.281Z,3.63
2022-12-24T07:34:50.076Z,4.03
2022-12-24T07:37:16.788Z,5.13
2022-12-24T07:39:43.310Z,4.90
2022-12-24T07:42:09.802Z,3.97
2022-12-24T07:44:36.434Z,4.38
2022-12-24T07:47:03.069Z,3.90
2022-12-24T07:49:29.782Z,3.55
2022-12-24T07:51:56.414Z,4.32
2022-12-24T07:54:26.138Z,3.80
2022-12-24T07:56:52.676Z,4.15
2022-12-24T07:59:19.203Z,3.85
2022-12-24T08:01:46.729Z,3.17
2022-12-24T08:04:13.559Z,4.00
2022-12-24T08:06:41.498Z,4.40
2022-12-24T08:09:08.068Z,3.85
2022-12-24T08:11:34.594Z,4.03
2022-12-24T08:14:01.187Z,4.15
2022-12-24T08:16:27.946Z,4.88
2022-12-24T08:18:55.879Z,4.35
2022-12-24T08:21:22.367Z,3.53
2022-12-24T08:23:48.911Z,4.25
2022-12-24T08:26:15.824Z,4.15
2022-12-24T08:28:42.551Z,3.47
2022-12-24T08:31:09.133Z,4.60
2022-12-24T08:33:35.694Z,3.83
2022-12-24T08:36:03.029Z,3.70
2022-12-24T08:38:29.840Z,4.28
2022-12-24T08:40:56.405Z,4.63
2022-12-24T08:43:23.021Z,4.05
2022-12-24T08:45:50.086Z,4.97
2022-12-24T08:48:17.369Z,3.50
2022-12-24T08:50:44.105Z,3.30
2022-12-24T08:53:11.099Z,3.65
2022-12-24T08:55:37.759Z,4.07
2022-12-24T08:58:04.606Z,4.07
2022-12-24T09:00:31.257Z,3.83
2022-12-24T09:02:58.005Z,3.80
2022-12-24T09:05:26.071Z,4.50
2022-12-24T09:07:53.199Z,3.97
2022-12-24T09:10:19.889Z,4.70
2022-12-24T09:12:46.693Z,4.18
2022-12-24T09:15:14.653Z,4.68
2022-12-24T09:17:41.799Z,3.40
2022-12-24T09:20:09.370Z,4.47
2022-12-24T09:22:37.826Z,3.80
2022-12-24T09:25:06.252Z,4.38
2022-12-24T09:27:32.804Z,4.18
2022-12-24T09:29:59.279Z,4.32
2022-12-24T09:32:25.727Z,4.40
2022-12-24T09:34:52.217Z,5.25
2022-12-24T09:37:19.075Z,4.57
2022-12-24T09:39:45.615Z,5.15
2022-12-24T09:42:51.268Z,4.18
2022-12-24T09:45:35.194Z,4.70
2022-12-24T09:48:14.108Z,4.35
2022-12-24T09:50:51.616Z,3.90
2022-12-24T09:53:38.667Z,4.35
2022-12-24T09:56:13.440Z,4.90
2022-12-24T09:58:45.768Z,4.90
2022-12-24T10:01:14.393Z,4.65
2022-12-24T10:03:41.320Z,5.43
2022-12-24T10:06:10.412Z,4.85
2022-12-24T10:08:39.642Z,4.05
2022-12-24T10:11:12.801Z,4.43
2022-12-24T10:13:48.443Z,3.83
2022-12-24T10:16:26.921Z,4.15
2022-12-24T10:19:05.548Z,4.18
2022-12-24T10:21:48.418Z,4.05
2022-12-24T10:24:25.701Z,4.07
2022-12-24T10:27:16.319Z,5.15
2022-12-24T10:29:47.743Z,4.63
2022-12-24T10:32:22.138Z,4.50
2022-12-24T10:34:57.840Z,5.00
2022-12-24T10:37:28.610Z,4.15
2022-12-24T10:40:00.362Z,4.75
2022-12-24T10:42:50.261Z,4.55
2022-12-24T10:45:21.702Z,4.95
2022-12-24T10:47:52.775Z,3.83
2022-12-24T10:50:28.837Z,4.55
2022-12-24T10:53:02.442Z,5.28
2022-12-24T10:55:28.885Z,4.47
2022-12-24T10:58:04.983Z,4.70
2022-12-24T11:00:36.342Z,4.22
2022-12-24T11:03:11.729Z,4.50
2022-12-24T11:05:39.358Z,4.32
2022-12-24T11:08:15.851Z,4.72
2022-12-24T11:10:56.779Z,4.30
2022-12-24T11:13:37.502Z,4.80
2022-12-24T11:16:05.733Z,4.45
2022-12-24T11:18:38.918Z,4.75
2022-12-24T11:21:06.278Z,4.65
2022-12-24T11:23:33.049Z,4.53
2022-12-24T11:25:59.773Z,4.00
2022-12-24T11:28:29.738Z,4.32
2022-12-24T11:31:04.024Z,4.47
2022-12-24T11:33:32.140Z,4.28
2022-12-24T11:36:06.625Z,5.10
2022-12-24T11:38:35.037Z,4.40
2022-12-24T11:41:12.073Z,3.67
2022-12-24T11:43:44.730Z,4.45
2022-12-24T11:46:20.736Z,3.78
2022-12-24T11:48:48.208Z,4.18
2022-12-24T11:51:26.662Z,4.57
2022-12-24T11:54:04.453Z,4.03
2022-12-24T11:56:51.208Z,4.00
2022-12-24T11:59:43.415Z,4.28
2022-12-24T12:02:33.216Z,4.20
2022-12-24T12:05:08.752Z,5.25
2022-12-24T12:07:37.976Z,4.93
2022-12-24T12:10:25.859Z,4.43
2022-12-24T12:13:03.893Z,4.40
2022-12-24T12:15:39.074Z,4.15
2022-12-24T12:18:14.880Z,3.63
2022-12-24T12:20:45.718Z,3.92
2022-12-24T12:23:17.946Z,3.83
2022-12-24T12:26:00.201Z,3.85
2022-12-24T12:28:56.976Z,3.90
2022-12-24T12:31:35.970Z,3.65
2022-12-24T12:34:15.425Z,4.32
2022-12-24T12:36:47.805Z,4.10
2022-12-24T12:39:14.500Z,3.50
2022-12-24T12:42:08.098Z,4.25
2022-12-24T12:44:56.012Z,4.15
2022-12-24T12:47:33.350Z,3.58
2022-12-24T12:50:08.652Z,3.65
2022-12-24T12:52:59.550Z,3.70
2022-12-24T12:55:44.684Z,4.00
2022-12-24T12:58:39.585Z,4.10
2022-12-24T13:01:16.739Z,3.75
2022-12-24T13:03:46.074Z,4.10
2022-12-24T13:06:45.111Z,2.97
2022-12-24T13:09:23.557Z,3.83
2022-12-24T13:12:27.265Z,3.72
2022-12-24T13:15:07.227Z,4.20
2022-12-24T13:17:39.877Z,3.70
2022-12-24T13:20:15.835Z,4.57
2022-12-24T13:22:50.521Z,4.07
2022-12-24T13:25:29.198Z,4.40
2022-12-24T13:27:55.850Z,3.95
2022-12-24T13:30:40.282Z,3.70
2022-12-24T13:33:11.406Z,3.90
2022-12-24T13:35:57.655Z,3.60
2022-12-24T13:38:27.096Z,3.67
2022-12-24T13:41:13.960Z,3.15
2022-12-24T13:44:03.728Z,3.28
2022-12-24T13:47:08.935Z,3.97
2022-12-24T13:49:44.760Z,4.45
2022-12-24T13:52:11.195Z,4.10
2022-12-24T13:54:40.380Z,4.18
2022-12-24T13:57:48.328Z,3.40
2022-12-24T14:00:20.984Z,3.50
2022-12-24T14:03:03.799Z,3.13
2022-12-24T14:05:36.753Z,3.20
2022-12-24T14:08:07.313Z,3.70
2022-12-24T14:13:10.054Z,3.78
2022-12-24T14:15:48.850Z,3.90
2022-12-24T14:18:24.603Z,7.93
2022-12-24T14:20:54.145Z,3.33
2022-12-24T14:23:49.701Z,3.92
2022-12-24T14:26:22.761Z,3.60
2022-12-24T14:28:55.706Z,3.70
2022-12-24T14:31:22.446Z,3.60
2022-12-24T14:33:49.028Z,3.65
2022-12-24T14:36:21.907Z,3.78
2022-12-24T14:38:49.878Z,3.20
2022-12-24T14:41:28.601Z,3.72
2022-12-24T14:44:22.014Z,3.85
2022-12-24T14:46:56.402Z,4.22
2022-12-24T14:49:47.127Z,5.32
2022-12-24T14:55:47.936Z,4.30
2022-12-24T14:58:35.960Z,3.40
2022-12-24T15:01:37.963Z,3.90
2022-12-24T15:04:10.684Z,3.55
2022-12-24T15:06:49.554Z,3.42
2022-12-24T15:09:20.417Z,4.75
2022-12-24T15:11:49.261Z,5.18
2022-12-24T15:14:17.231Z,4.20
2022-12-24T15:16:54.206Z,4.20
2022-12-24T15:21:51.734Z,3.90
2022-12-24T15:24:33.795Z,4.03
2022-12-24T15:27:03.180Z,3.05
2022-12-24T15:29:32.515Z,3.83
2022-12-24T15:32:01.248Z,3.80
2022-12-24T15:34:34.856Z,2.90
2022-12-24T15:37:04.708Z,3.33
2022-12-24T15:39:31.654Z,4.00
2022-12-24T15:42:13.665Z,4.43
2022-12-24T15:45:09.949Z,3.60
2022-12-24T15:47:44.138Z,3.63
2022-12-24T15:50:29.163Z,4.57
2022-12-24T15:53:19.842Z,4.47
2022-12-24T15:55:47.508Z,4.70
2022-12-24T15:58:18.547Z,4.28
2022-12-24T16:01:00.667Z,5.88
2022-12-24T16:03:27.300Z,5.38
2022-12-24T16:06:07.856Z,5.13
2022-12-24T16:08:36.120Z,5.28
2022-12-24T16:11:05.322Z,5.28
2022-12-24T16:13:35.248Z,5.28
2022-12-24T16:16:16.622Z,4.82
2022-12-24T16:18:53.684Z,4.38
2022-12-24T16:24:06.720Z,4.10
2022-12-24T16:26:34.774Z,5.47
2022-12-24T16:29:01.867Z,4.93
2022-12-24T16:31:35.846Z,4.38
2022-12-24T16:34:03.547Z,3.17
2022-12-24T16:36:31.713Z,3.90
2022-12-24T16:39:17.479Z,3.65
2022-12-24T16:42:03.011Z,3.25
2022-12-24T16:44:29.545Z,3.33
2022-12-24T16:46:56.388Z,3.92
2022-12-24T16:49:23.794Z,3.83
2022-12-24T16:51:50.599Z,4.78
2022-12-24T16:54:17.113Z,3.67
2022-12-24T16:56:44.677Z,3.55
2022-12-24T16:59:23.961Z,3.10
2022-12-24T17:01:52.975Z,3.88
2022-12-24T17:04:20.131Z,3.35
2022-12-24T17:06:49.557Z,3.50
2022-12-24T17:09:17.150Z,4.00
2022-12-24T17:11:43.634Z,3.45
2022-12-24T17:14:19.874Z,3.20
2022-12-24T17:16:47.179Z,5.47
2022-12-24T17:19:13.748Z,5.07
2022-12-24T17:21:40.882Z,5.57
2022-12-24T17:24:08.857Z,4.43
2022-12-24T17:26:36.946Z,4.15
2022-12-24T17:29:22.745Z,4.15
2022-12-24T17:31:49.199Z,5.45
2022-12-24T17:34:15.700Z,3.78
2022-12-24T17:36:42.658Z,3.63
2022-12-24T17:39:09.161Z,3.90
2022-12-24T17:41:35.666Z,3.78
2022-12-24T17:44:02.196Z,3.70
2022-12-24T17:46:28.729Z,2.85
2022-12-24T17:48:55.405Z,2.78
2022-12-24T17:51:23.485Z,3.28
2022-12-24T17:53:50.406Z,3.38
2022-12-24T17:56:18.193Z,2.70
2022-12-24T17:58:46.251Z,3.42
2022-12-24T18:01:18.913Z,2.78
2022-12-24T18:03:46.602Z,3.20
2022-12-24T18:06:14.051Z,2.88
2022-12-24T18:08:42.336Z,3.15
2022-12-24T18:11:24.459Z,2.97
2022-12-24T18:13:51.667Z,3.10
2022-12-24T18:16:28.192Z,3.40
2022-12-24T18:18:55.543Z,3.40
2022-12-24T18:21:24.145Z,3.70
2022-12-24T18:23:52.116Z,3.75
2022-12-24T18:26:20.099Z,4.93
2022-12-24T18:28:47.466Z,4.95
2022-12-24T18:31:17.157Z,3.60
2022-12-24T18:33:45.443Z,3.08
2022-12-24T18:36:12.558Z,4.78
2022-12-24T18:38:39.288Z,3.50
2022-12-24T18:41:10.472Z,3.60
2022-12-24T18:43:37.184Z,3.22
2022-12-24T18:46:08.501Z,3.80
2022-12-24T18:48:35.400Z,4.00
2022-12-24T18:51:02.149Z,3.60
2022-12-24T18:53:28.634Z,3.30
2022-12-24T18:55:55.174Z,3.60
2022-12-24T18:58:21.716Z,3.75
2022-12-24T19:00:48.324Z,3.97
2022-12-24T19:03:16.757Z,4.75
2022-12-24T19:05:43.475Z,4.38
2022-12-24T19:08:37.677Z,4.35
2022-12-24T19:10:56.475Z,4.28
2022-12-24T19:13:22.959Z,4.20
2022-12-24T19:15:49.447Z,4.25
2022-12-24T19:18:15.992Z,4.15
2022-12-24T19:20:42.568Z,5.43
2022-12-24T19:23:09.200Z,5.03
2022-12-24T19:25:35.901Z,5.18
2022-12-24T19:28:08.559Z,4.10
2022-12-24T19:30:40.877Z,4.68
2022-12-24T19:33:07.697Z,5.40
2022-12-24T19:35:34.421Z,4.30
2022-12-24T19:38:01.257Z,5.35
2022-12-24T19:40:28.104Z,5.03
2022-12-24T19:42:54.785Z,4.70
2022-12-24T19:45:22.524Z,4.63
2022-12-24T19:47:49.944Z,4.93
2022-12-24T19:50:17.549Z,5.85
2022-12-24T19:52:44.469Z,5.32
2022-12-24T19:55:11.920Z,5.85
2022-12-24T19:57:39.674Z,7.53
2022-12-24T20:00:10.142Z,5.72
2022-12-24T20:02:36.992Z,5.15
2022-12-24T20:05:04.810Z,5.00
2022-12-24T20:07:31.397Z,4.97
2022-12-24T20:09:58.120Z,4.45
2022-12-24T20:12:24.649Z,5.10
2022-12-24T20:14:51.182Z,4.80
2022-12-24T20:17:17.711Z,4.40
2022-12-24T20:19:44.246Z,4.90
2022-12-24T20:22:10.798Z,4.45
2022-12-24T20:24:37.261Z,4.57
2022-12-24T20:27:03.808Z,5.85
2022-12-24T20:29:30.376Z,5.03
2022-12-24T20:31:56.951Z,4.88
2022-12-24T20:34:23.481Z,5.03
2022-12-24T20:36:50.014Z,6.55
2022-12-24T20:39:17.013Z,5.28
2022-12-24T20:41:43.556Z,5.40
2022-12-24T20:44:10.799Z,5.70
2022-12-24T20:46:37.343Z,5.90
2022-12-24T20:49:05.251Z,5.18
2022-12-24T20:51:32.152Z,4.95
2022-12-24T20:54:01.516Z,4.15
2022-12-24T20:56:29.290Z,4.28
2022-12-24T20:58:55.876Z,4.57
2022-12-24T21:01:25.761Z,4.53
2022-12-24T21:03:54.237Z,5.32
2022-12-24T21:06:21.889Z,5.68
2022-12-24T21:08:50.053Z,4.80
2022-12-24T21:11:35.780Z,5.95
2022-12-24T21:14:02.400Z,5.07
2022-12-24T21:16:31.045Z,5.25
2022-12-24T21:18:57.717Z,5.20
2022-12-24T21:21:24.274Z,5.50
2022-12-24T21:23:50.766Z,5.63
2022-12-24T21:26:17.238Z,5.80
2022-12-24T21:28:45.346Z,5.68
2022-12-24T21:31:14.074Z,5.70
2022-12-24T21:33:41.276Z,6.68
2022-12-24T21:36:08.444Z,5.88
2022-12-24T21:38:35.278Z,6.70
2022-12-24T21:41:04.793Z,6.90
2022-12-24T21:43:32.971Z,6.50
2022-12-24T21:45:59.725Z,8.48
2022-12-24T21:48:45.595Z,8.65
2022-12-24T21:51:12.152Z,10.50
2022-12-24T21:53:57.386Z,7.88
2022-12-24T21:56:23.893Z,7.28
2022-12-24T21:58:50.903Z,8.30
2022-12-24T22:01:18.291Z,7.25
2022-12-24T22:03:48.807Z,8.00
2022-12-24T22:06:35.406Z,7.25
2022-12-24T22:09:21.241Z,7.43
2022-12-24T22:11:53.815Z,6.18
2022-12-24T22:14:21.372Z,7.07
2022-12-24T22:16:47.904Z,7.60
2022-12-24T22:19:14.484Z,7.10
2022-12-24T22:21:40.978Z,6.07
2022-12-24T22:24:08.060Z,9.55
2022-12-24T22:26:34.540Z,8.73
2022-12-24T22:29:04.724Z,7.53
2022-12-24T22:31:32.576Z,7.20
2022-12-24T22:33:59.694Z,7.82
2022-12-24T22:36:26.496Z,7.22
2022-12-24T22:38:53.180Z,6.57
2022-12-24T22:41:20.289Z,9.02
2022-12-24T22:43:49.070Z,7.40
2022-12-24T22:46:15.735Z,5.97
2022-12-24T22:48:43.807Z,6.40
2022-12-24T22:51:24.163Z,9.45
2022-12-24T22:53:50.847Z,8.32
2022-12-24T22:56:20.450Z,7.18
2022-12-24T22:58:48.357Z,7.50
2022-12-24T23:01:14.921Z,6.68
2022-12-24T23:03:41.679Z,7.30
2022-12-24T23:06:08.235Z,7.13
2022-12-24T23:08:36.822Z,7.18
2022-12-24T23:11:13.470Z,7.30
2022-12-24T23:14:01.333Z,6.60
2022-12-24T23:16:29.475Z,7.63
2022-12-24T23:18:58.250Z,6.47
2022-12-24T23:21:25.747Z,6.28
2022-12-24T23:23:52.839Z,6.65
2022-12-24T23:26:21.556Z,7.05
2022-12-24T23:28:48.913Z,7.50
2022-12-24T23:31:16.707Z,6.30
2022-12-24T23:33:43.236Z,6.28
2022-12-24T23:36:10.011Z,6.90
2022-12-24T23:38:36.543Z,6.05
2022-12-24T23:41:06.093Z,6.35
2022-12-24T23:43:33.409Z,7.88
2022-12-24T23:46:00.066Z,6.07
2022-12-24T23:48:27.413Z,6.32
2022-12-24T23:51:07.232Z,4.88
2022-12-24T23:53:34.212Z,5.00
2022-12-24T23:56:00.917Z,4.95
2022-12-24T23:58:27.777Z,4.80
